Time;durP1;ratioP1;P1;durP2;ratioP2;P2;SDS_P1;SDS_P2;PMS_P1;PMS_P2;Temp;Humidity;BMP_temperature;BMP_pressure;BME280_temperature;BME280_humidity;BME280_pressure;Samples;Min_cycle;Max_cycle;Signal;HPM_P1;HPM_P2
2022/05/14 00:00:53;;;;;;;11.82;5.50;;;;;;;;;;5103807;28;20040;-77
2022/05/14 00:03:20;;;;;;;11.55;4.75;;;;;;;;;;5081029;28;20098;-77
2022/05/14 00:05:47;;;;;;;13.25;5.95;;;;;;;;;;5087553;28;20040;-77
2022/05/14 00:08:13;;;;;;;12.95;6.47;;;;;;;;;;5073827;28;20564;-77
2022/05/14 00:13:25;;;;;;;13.38;5.72;;;;;;;;;;5110541;28;20047;-77
2022/05/14 00:15:52;;;;;;;12.02;5.90;;;;;;;;;;5095436;28;20396;-76
2022/05/14 00:18:19;;;;;;;14.15;5.65;;;;;;;;;;5106856;28;20391;-77
2022/05/14 00:20:45;;;;;;;10.18;5.63;;;;;;;;;;5089985;28;20040;-76
2022/05/14 00:23:12;;;;;;;15.82;5.80;;;;;;;;;;5100995;28;20649;-76
2022/05/14 00:25:38;;;;;;;10.13;5.03;;;;;;;;;;5078554;28;20040;-76
2022/05/14 00:28:04;;;;;;;11.27;5.30;;;;;;;;;;5076468;28;20040;-76
2022/05/14 00:30:31;;;;;;;12.27;5.40;;;;;;;;;;5081592;28;20082;-76
2022/05/14 00:32:58;;;;;;;11.05;5.53;;;;;;;;;;5083145;28;20506;-77
2022/05/14 00:35:24;;;;;;;10.75;5.50;;;;;;;;;;5089923;28;20090;-77
2022/05/14 00:37:51;;;;;;;14.75;6.18;;;;;;;;;;5090020;28;20048;-77
2022/05/14 00:40:26;;;;;;;14.88;5.75;;;;;;;;;;5084788;28;20419;-77
2022/05/14 00:42:53;;;;;;;11.52;5.45;;;;;;;;;;5072169;28;20039;-77
2022/05/14 00:45:19;;;;;;;10.70;5.80;;;;;;;;;;5099359;28;20490;-77
2022/05/14 00:47:49;;;;;;;12.85;5.60;;;;;;;;;;5107886;28;20075;-76
2022/05/14 00:50:18;;;;;;;11.50;5.28;;;;;;;;;;5096193;28;20043;-77
2022/05/14 00:52:44;;;;;;;11.20;5.35;;;;;;;;;;5098790;28;20036;-77
2022/05/14 00:55:11;;;;;;;12.98;5.72;;;;;;;;;;5089689;28;20040;-77
2022/05/14 00:57:39;;;;;;;14.23;6.07;;;;;;;;;;5091744;28;20093;-77
2022/05/14 01:00:08;;;;;;;12.18;5.75;;;;;;;;;;5103133;28;20083;-77
2022/05/14 01:02:34;;;;;;;13.23;6.30;;;;;;;;;;5072367;28;20044;-77
2022/05/14 01:05:01;;;;;;;12.68;5.93;;;;;;;;;;5089410;28;20048;-77
2022/05/14 01:07:28;;;;;;;12.98;5.65;;;;;;;;;;5089526;28;20734;-77
2022/05/14 01:09:58;;;;;;;11.80;5.57;;;;;;;;;;5095868;28;20047;-77
2022/05/14 01:12:25;;;;;;;13.73;6.30;;;;;;;;;;5109584;28;20134;-77
2022/05/14 01:14:51;;;;;;;12.90;5.25;;;;;;;;;;5109454;28;20047;-76
2022/05/14 01:17:18;;;;;;;10.98;5.50;;;;;;;;;;5073251;28;20494;-76
2022/05/14 01:19:44;;;;;;;15.10;6.10;;;;;;;;;;5089269;28;20101;-77
2022/05/14 01:22:29;;;;;;;13.00;6.70;;;;;;;;;;5089191;28;20040;-77
2022/05/14 01:27:43;;;;;;;10.23;5.05;;;;;;;;;;5109546;28;20165;-77
2022/05/14 01:30:09;;;;;;;11.98;5.22;;;;;;;;;;5109480;28;20097;-76
2022/05/14 01:32:36;;;;;;;12.13;5.78;;;;;;;;;;5109770;28;20499;-76
2022/05/14 01:35:02;;;;;;;13.40;6.10;;;;;;;;;;5075940;28;20051;-76
2022/05/14 01:37:28;;;;;;;10.93;5.20;;;;;;;;;;5102438;28;20048;-76
2022/05/14 01:39:54;;;;;;;11.23;5.10;;;;;;;;;;5100050;28;20040;-77
2022/05/14 01:42:20;;;;;;;15.82;5.32;;;;;;;;;;5092432;28;20055;-77
2022/05/14 01:44:47;;;;;;;11.38;5.85;;;;;;;;;;5085050;28;20081;-76
2022/05/14 01:47:13;;;;;;;13.25;5.47;;;;;;;;;;5103324;28;20040;-76
2022/05/14 01:49:39;;;;;;;10.75;4.93;;;;;;;;;;5098847;28;20036;-76
2022/05/14 01:52:06;;;;;;;13.10;5.30;;;;;;;;;;5095945;28;20452;-76
2022/05/14 01:54:32;;;;;;;12.13;5.50;;;;;;;;;;5092833;28;20035;-76
2022/05/14 01:56:58;;;;;;;11.57;5.47;;;;;;;;;;5098630;28;20413;-77
2022/05/14 01:59:26;;;;;;;11.10;5.65;;;;;;;;;;5086770;28;20437;-76
2022/05/14 02:01:53;;;;;;;14.20;5.82;;;;;;;;;;5106425;28;20040;-76
2022/05/14 02:04:19;;;;;;;11.27;5.40;;;;;;;;;;5112230;28;20405;-76
2022/05/14 02:06:45;;;;;;;12.45;5.82;;;;;;;;;;5097756;28;20104;-76
2022/05/14 02:09:13;;;;;;;13.60;5.97;;;;;;;;;;5103856;28;20122;-76
2022/05/14 02:11:40;;;;;;;16.65;5.70;;;;;;;;;;5092688;28;20047;-76
2022/05/14 02:14:07;;;;;;;12.23;5.95;;;;;;;;;;5093387;28;20051;-76
2022/05/14 02:16:33;;;;;;;12.93;5.85;;;;;;;;;;5112840;28;20051;-76
2022/05/14 02:19:00;;;;;;;12.90;5.57;;;;;;;;;;5087265;28;20723;-77
2022/05/14 02:21:28;;;;;;;13.90;6.60;;;;;;;;;;5105223;28;20044;-76
2022/05/14 02:23:55;;;;;;;13.13;5.68;;;;;;;;;;5096013;28;20036;-77
2022/05/14 02:26:21;;;;;;;13.88;6.03;;;;;;;;;;5096810;28;20055;-76
2022/05/14 02:28:47;;;;;;;11.55;5.78;;;;;;;;;;5065977;28;20119;-76
2022/05/14 02:31:13;;;;;;;12.18;5.95;;;;;;;;;;5071876;28;20178;-76
2022/05/14 02:33:40;;;;;;;12.52;5.63;;;;;;;;;;5055138;28;20044;-76
2022/05/14 02:36:10;;;;;;;14.15;6.53;;;;;;;;;;5073372;28;20052;-76
2022/05/14 02:38:37;;;;;;;13.40;6.28;;;;;;;;;;5072238;28;20036;-76
2022/05/14 02:41:03;;;;;;;14.25;6.45;;;;;;;;;;5098941;28;20115;-76
2022/05/14 02:43:30;;;;;;;13.85;6.00;;;;;;;;;;5106294;28;20085;-76
2022/05/14 02:45:56;;;;;;;16.27;7.38;;;;;;;;;;5106794;28;20059;-76
2022/05/14 02:48:22;;;;;;;14.50;6.30;;;;;;;;;;5080932;28;20105;-76
2022/05/14 02:50:48;;;;;;;17.10;6.85;;;;;;;;;;5098374;28;20044;-76
2022/05/14 02:53:14;;;;;;;13.23;5.88;;;;;;;;;;5088719;28;20379;-76
2022/05/14 02:55:41;;;;;;;20.02;7.55;;;;;;;;;;5093608;28;20058;-76
2022/05/14 02:58:07;;;;;;;17.85;7.43;;;;;;;;;;5086332;28;20075;-76
2022/05/14 03:00:33;;;;;;;20.40;8.75;;;;;;;;;;5100463;28;20032;-77
2022/05/14 03:02:59;;;;;;;22.17;7.65;;;;;;;;;;5094738;28;20078;-77
2022/05/14 03:05:27;;;;;;;17.88;8.82;;;;;;;;;;5106332;28;20461;-77
2022/05/14 03:07:54;;;;;;;19.20;9.10;;;;;;;;;;5096066;28;20046;-77
2022/05/14 03:10:20;;;;;;;22.48;8.35;;;;;;;;;;5099705;28;20059;-76
2022/05/14 03:12:46;;;;;;;18.60;8.10;;;;;;;;;;5103899;28;20035;-76
2022/05/14 03:15:13;;;;;;;16.92;8.00;;;;;;;;;;5093218;28;20322;-76
2022/05/14 03:17:39;;;;;;;17.73;8.57;;;;;;;;;;5103669;28;20123;-77
2022/05/14 03:20:07;;;;;;;16.00;7.22;;;;;;;;;;5099001;28;20050;-76
2022/05/14 03:22:35;;;;;;;16.25;8.15;;;;;;;;;;5095460;28;20040;-76
2022/05/14 03:25:01;;;;;;;19.27;7.60;;;;;;;;;;5106115;28;20031;-76
2022/05/14 03:27:28;;;;;;;18.15;7.93;;;;;;;;;;5077858;28;20046;-77
2022/05/14 03:29:54;;;;;;;16.17;8.00;;;;;;;;;;5100481;28;20048;-76
2022/05/14 03:32:21;;;;;;;16.17;7.25;;;;;;;;;;5102543;28;20040;-76
2022/05/14 03:34:47;;;;;;;18.45;8.85;;;;;;;;;;5075831;28;20060;-76
2022/05/14 03:37:14;;;;;;;17.52;8.40;;;;;;;;;;5104200;28;20036;-76
2022/05/14 03:39:40;;;;;;;16.92;8.02;;;;;;;;;;5098355;28;20042;-76
2022/05/14 03:42:07;;;;;;;17.42;7.85;;;;;;;;;;5096108;28;20036;-76
2022/05/14 03:44:33;;;;;;;19.77;7.88;;;;;;;;;;5105403;28;20035;-76
2022/05/14 03:46:59;;;;;;;17.98;7.25;;;;;;;;;;5065759;28;20044;-76
2022/05/14 03:49:25;;;;;;;16.83;8.23;;;;;;;;;;5097028;28;20043;-76
2022/05/14 03:51:52;;;;;;;19.52;8.27;;;;;;;;;;5096862;28;20487;-76
2022/05/14 03:54:18;;;;;;;16.50;7.70;;;;;;;;;;5104847;28;20097;-76
2022/05/14 03:56:45;;;;;;;20.77;8.60;;;;;;;;;;5075298;28;20130;-76
2022/05/14 03:59:12;;;;;;;16.27;7.97;;;;;;;;;;5083981;28;20043;-76
2022/05/14 04:01:38;;;;;;;17.50;8.50;;;;;;;;;;5100281;28;20039;-76
2022/05/14 04:04:05;;;;;;;20.25;7.80;;;;;;;;;;5092848;28;20115;-76
2022/05/14 04:06:31;;;;;;;18.50;9.20;;;;;;;;;;5105051;28;20039;-76
2022/05/14 04:08:58;;;;;;;16.75;8.82;;;;;;;;;;5095718;28;20042;-75
2022/05/14 04:11:24;;;;;;;19.05;8.77;;;;;;;;;;5097641;28;20426;-76
2022/05/14 04:13:50;;;;;;;18.58;8.82;;;;;;;;;;5103764;28;20075;-76
2022/05/14 04:16:16;;;;;;;19.00;9.15;;;;;;;;;;5074373;28;20127;-76
2022/05/14 04:18:43;;;;;;;18.15;9.00;;;;;;;;;;5101754;28;20043;-76
2022/05/14 04:21:10;;;;;;;18.83;8.73;;;;;;;;;;5099031;28;20126;-76
2022/05/14 04:23:37;;;;;;;16.35;8.23;;;;;;;;;;5093575;28;20044;-76
2022/05/14 04:26:13;;;;;;;17.00;8.73;;;;;;;;;;5104699;28;20067;-75
2022/05/14 04:28:39;;;;;;;18.67;8.45;;;;;;;;;;5084970;28;20487;-75
2022/05/14 04:31:06;;;;;;;19.05;8.48;;;;;;;;;;5099819;28;20044;-75
2022/05/14 04:33:33;;;;;;;17.05;8.18;;;;;;;;;;5075836;28;20051;-76
2022/05/14 04:35:59;;;;;;;19.52;9.18;;;;;;;;;;5105656;27;20394;-76
2022/05/14 04:38:25;;;;;;;18.95;8.73;;;;;;;;;;5094923;28;20130;-76
2022/05/14 04:40:53;;;;;;;18.65;8.65;;;;;;;;;;5097007;28;20036;-76
2022/05/14 04:43:19;;;;;;;15.35;8.18;;;;;;;;;;5085979;28;20039;-75
2022/05/14 04:45:46;;;;;;;21.55;9.45;;;;;;;;;;5088892;28;20051;-76
2022/05/14 04:48:12;;;;;;;21.98;9.70;;;;;;;;;;5094398;28;20043;-76
2022/05/14 04:50:39;;;;;;;23.88;11.50;;;;;;;;;;5097610;28;20560;-76
2022/05/14 04:53:05;;;;;;;24.98;10.82;;;;;;;;;;5102334;28;20529;-75
2022/05/14 04:55:31;;;;;;;21.58;10.50;;;;;;;;;;5089164;28;20036;-76
2022/05/14 04:57:58;;;;;;;24.67;10.85;;;;;;;;;;5093473;28;20043;-75
2022/05/14 05:00:24;;;;;;;23.35;10.30;;;;;;;;;;5097927;28;20051;-76
2022/05/14 05:05:35;;;;;;;25.77;10.90;;;;;;;;;;5075105;28;20092;-76
2022/05/14 05:08:01;;;;;;;21.83;10.38;;;;;;;;;;5099592;28;20043;-76
2022/05/14 05:10:28;;;;;;;26.92;11.80;;;;;;;;;;5099538;28;20407;-76
2022/05/14 05:12:55;;;;;;;23.10;10.73;;;;;;;;;;5091685;28;20560;-76
2022/05/14 05:15:21;;;;;;;22.95;11.50;;;;;;;;;;5103698;28;20085;-76
2022/05/14 05:17:48;;;;;;;21.88;10.30;;;;;;;;;;5094342;28;20036;-75
2022/05/14 05:20:15;;;;;;;23.42;10.48;;;;;;;;;;5079104;28;20089;-75
2022/05/14 05:22:41;;;;;;;26.52;10.25;;;;;;;;;;5102739;28;20123;-76
2022/05/14 05:25:09;;;;;;;22.30;10.73;;;;;;;;;;5090843;28;20032;-76
2022/05/14 05:27:35;;;;;;;25.13;11.07;;;;;;;;;;5102170;28;20529;-76
2022/05/14 05:30:02;;;;;;;23.05;10.55;;;;;;;;;;5102264;28;20039;-76
2022/05/14 05:32:29;;;;;;;28.00;11.02;;;;;;;;;;5096799;28;20070;-76
2022/05/14 05:34:55;;;;;;;24.65;12.07;;;;;;;;;;5107768;28;20040;-76
2022/05/14 05:37:21;;;;;;;23.50;10.98;;;;;;;;;;5098442;28;20071;-76
2022/05/14 05:39:47;;;;;;;25.05;12.40;;;;;;;;;;5095503;28;20043;-77
2022/05/14 05:42:13;;;;;;;26.13;10.15;;;;;;;;;;5113644;28;20050;-76
2022/05/14 05:44:39;;;;;;;24.02;10.05;;;;;;;;;;5097227;28;20043;-76
2022/05/14 05:47:07;;;;;;;29.23;12.20;;;;;;;;;;5096815;28;20062;-76
2022/05/14 05:49:38;;;;;;;25.65;11.25;;;;;;;;;;5104420;28;20487;-76
2022/05/14 05:52:04;;;;;;;24.25;10.80;;;;;;;;;;5093298;28;20169;-77
2022/05/14 05:57:15;;;;;;;;;;;;;;;;;;5093309;28;20040;-75
2022/05/14 05:59:41;;;;;;;26.90;10.82;;;;;;;;;;5105058;28;19924;-75
2022/05/14 06:02:08;;;;;;;24.60;10.82;;;;;;;;;;5096276;28;20036;-75
2022/05/14 06:04:35;;;;;;;23.13;10.40;;;;;;;;;;5071618;28;20067;-76
2022/05/14 06:07:01;;;;;;;29.77;11.73;;;;;;;;;;5104974;28;20040;-75
2022/05/14 06:09:40;;;;;;;22.60;9.60;;;;;;;;;;5092759;28;20040;-75
2022/05/14 06:12:06;;;;;;;30.75;12.52;;;;;;;;;;5093662;28;20506;-75
2022/05/14 06:14:33;;;;;;;23.27;10.82;;;;;;;;;;5112714;28;20045;-75
2022/05/14 06:16:59;;;;;;;30.60;12.68;;;;;;;;;;5109998;28;20047;-75
2022/05/14 06:19:25;;;;;;;31.80;12.70;;;;;;;;;;5112576;28;20070;-76
2022/05/14 06:21:51;;;;;;;33.45;13.63;;;;;;;;;;5079050;28;20392;-76
2022/05/14 06:24:17;;;;;;;26.15;12.68;;;;;;;;;;5108794;28;20407;-78
2022/05/14 06:26:44;;;;;;;29.85;12.20;;;;;;;;;;5075593;28;20032;-75
2022/05/14 06:29:10;;;;;;;26.92;12.75;;;;;;;;;;5084221;28;20394;-76
2022/05/14 06:31:37;;;;;;;26.70;12.38;;;;;;;;;;5112673;28;20039;-76
2022/05/14 06:34:03;;;;;;;29.17;13.85;;;;;;;;;;5108903;28;20040;-75
2022/05/14 06:36:29;;;;;;;29.80;12.02;;;;;;;;;;5099662;28;20692;-76
2022/05/14 06:38:56;;;;;;;26.60;12.18;;;;;;;;;;5082957;28;20047;-77
2022/05/14 06:41:22;;;;;;;30.35;12.63;;;;;;;;;;5107862;28;20067;-76
2022/05/14 06:43:48;;;;;;;36.33;12.07;;;;;;;;;;5109542;28;20115;-77
2022/05/14 06:46:15;;;;;;;27.58;11.35;;;;;;;;;;5089035;28;20426;-77
2022/05/14 06:48:41;;;;;;;26.75;11.20;;;;;;;;;;5091398;28;20047;-77
2022/05/14 06:51:10;;;;;;;31.02;11.25;;;;;;;;;;5091956;28;20079;-77
2022/05/14 06:53:37;;;;;;;27.10;9.80;;;;;;;;;;5091884;28;20509;-76
2022/05/14 06:56:04;;;;;;;22.02;9.00;;;;;;;;;;5075004;28;20066;-77
2022/05/14 06:58:35;;;;;;;26.00;9.68;;;;;;;;;;5090513;28;20055;-77
2022/05/14 07:01:02;;;;;;;23.50;8.73;;;;;;;;;;5092292;28;20392;-78
2022/05/14 07:08:58;;;;;;;23.60;7.95;;;;;;;;;;5091119;28;20883;-78
2022/05/14 07:11:24;;;;;;;25.60;7.72;;;;;;;;;;5090934;28;20040;-76
2022/05/14 07:13:51;;;;;;;21.23;7.65;;;;;;;;;;5098914;28;20043;-77
2022/05/14 07:16:18;;;;;;;18.20;6.57;;;;;;;;;;5100106;28;20048;-76
2022/05/14 07:18:44;;;;;;;23.23;7.60;;;;;;;;;;5091307;28;20047;-77
2022/05/14 07:21:10;;;;;;;18.83;5.70;;;;;;;;;;5093108;28;20039;-78
2022/05/14 07:23:36;;;;;;;20.50;6.30;;;;;;;;;;5102710;28;20456;-76
2022/05/14 07:26:03;;;;;;;22.80;6.15;;;;;;;;;;5100370;28;20074;-77
2022/05/14 07:28:29;;;;;;;19.48;6.93;;;;;;;;;;5094684;28;20479;-77
2022/05/14 07:30:56;;;;;;;20.23;6.63;;;;;;;;;;5107378;28;20063;-78
2022/05/14 07:33:23;;;;;;;16.55;6.55;;;;;;;;;;5102932;28;20051;-76
2022/05/14 07:35:49;;;;;;;16.63;6.78;;;;;;;;;;5099018;28;20078;-77
2022/05/14 07:38:15;;;;;;;23.23;7.53;;;;;;;;;;5095046;28;20056;-75
2022/05/14 07:40:43;;;;;;;23.95;6.68;;;;;;;;;;5105429;28;20035;-76
2022/05/14 07:43:12;;;;;;;22.50;7.10;;;;;;;;;;5094692;28;20036;-76
2022/05/14 07:45:57;;;;;;;18.92;6.00;;;;;;;;;;5099233;28;20420;-76
2022/05/14 07:48:28;;;;;;;23.50;7.45;;;;;;;;;;5088184;28;20036;-76
2022/05/14 07:50:54;;;;;;;18.70;7.00;;;;;;;;;;5092975;28;20036;-76
2022/05/14 07:53:20;;;;;;;20.10;6.28;;;;;;;;;;5100387;28;20040;-76
2022/05/14 07:55:47;;;;;;;20.83;6.25;;;;;;;;;;5101577;28;20091;-77
2022/05/14 07:58:13;;;;;;;17.17;6.03;;;;;;;;;;5092204;28;20040;-76
2022/05/14 08:00:40;;;;;;;19.55;6.82;;;;;;;;;;5104809;28;20043;-77
2022/05/14 08:03:06;;;;;;;18.52;6.20;;;;;;;;;;5096486;28;20135;-76
2022/05/14 08:05:32;;;;;;;18.48;6.10;;;;;;;;;;5096793;28;20513;-77
2022/05/14 08:07:58;;;;;;;19.63;6.07;;;;;;;;;;5104554;28;20035;-77
2022/05/14 08:10:25;;;;;;;17.70;5.88;;;;;;;;;;5091992;28;20047;-77
2022/05/14 08:12:55;;;;;;;20.77;6.68;;;;;;;;;;5084024;28;20294;-78
2022/05/14 08:15:22;;;;;;;19.55;5.72;;;;;;;;;;5100458;28;20123;-77
2022/05/14 08:17:48;;;;;;;17.75;5.70;;;;;;;;;;5092485;28;20044;-77
2022/05/14 08:20:15;;;;;;;16.52;5.43;;;;;;;;;;5105220;28;20364;-77
2022/05/14 08:25:27;;;;;;;18.80;6.15;;;;;;;;;;5094522;28;20182;-77
2022/05/14 08:27:54;;;;;;;18.95;6.30;;;;;;;;;;5104426;28;20044;-77
2022/05/14 08:30:22;;;;;;;19.58;5.68;;;;;;;;;;5093680;28;20035;-77
2022/05/14 08:32:48;;;;;;;17.10;5.70;;;;;;;;;;5098477;28;20086;-78
2022/05/14 08:35:14;;;;;;;17.73;5.65;;;;;;;;;;5101333;28;20096;-77
2022/05/14 08:37:41;;;;;;;16.65;5.68;;;;;;;;;;5091524;28;20474;-77
2022/05/14 08:40:10;;;;;;;16.55;4.85;;;;;;;;;;5102900;28;20046;-78
2022/05/14 08:42:37;;;;;;;21.60;6.05;;;;;;;;;;5097481;28;20406;-78
2022/05/14 08:45:04;;;;;;;19.08;5.78;;;;;;;;;;5094342;28;20040;-77
2022/05/14 08:47:55;;;;;;;25.55;5.90;;;;;;;;;;5092939;28;20480;-78
2022/05/14 08:50:25;;;;;;;20.63;5.80;;;;;;;;;;5101413;28;20075;-76
2022/05/14 08:52:51;;;;;;;16.17;5.43;;;;;;;;;;5100922;28;20039;-77
2022/05/14 08:55:18;;;;;;;20.70;5.45;;;;;;;;;;5090671;28;20112;-77
2022/05/14 08:57:56;;;;;;;18.88;6.03;;;;;;;;;;5091995;28;20219;-77
2022/05/14 09:00:22;;;;;;;14.73;5.30;;;;;;;;;;5097499;28;20086;-77
2022/05/14 09:02:50;;;;;;;20.30;5.55;;;;;;;;;;5101661;28;20040;-76
2022/05/14 09:05:19;;;;;;;16.48;5.50;;;;;;;;;;5089831;28;20503;-77
2022/05/14 09:07:45;;;;;;;18.67;5.18;;;;;;;;;;5088352;28;20067;-77
2022/05/14 09:10:30;;;;;;;17.10;5.00;;;;;;;;;;5088380;28;20067;-76
2022/05/14 09:13:31;;;;;;;19.58;5.75;;;;;;;;;;5090406;28;20084;-77
2022/05/14 09:15:59;;;;;;;17.48;5.72;;;;;;;;;;5098215;28;20118;-76
2022/05/14 09:18:34;;;;;;;19.67;5.35;;;;;;;;;;5089010;28;20043;-76
2022/05/14 09:21:02;;;;;;;18.52;5.00;;;;;;;;;;5090532;28;20078;-76
2022/05/14 09:23:34;;;;;;;19.73;5.93;;;;;;;;;;5103237;28;20052;-76
2022/05/14 09:26:18;;;;;;;20.20;6.25;;;;;;;;;;5099944;28;20099;-76
2022/05/14 09:28:49;;;;;;;22.45;5.72;;;;;;;;;;5108773;28;20061;-76
2022/05/14 09:31:26;;;;;;;20.10;6.35;;;;;;;;;;5093116;28;20043;-76
2022/05/14 09:34:01;;;;;;;18.05;5.57;;;;;;;;;;5098640;28;20361;-76
2022/05/14 09:36:30;;;;;;;19.10;5.90;;;;;;;;;;5104894;28;20104;-76
2022/05/14 09:39:07;;;;;;;15.55;5.38;;;;;;;;;;5090410;28;20043;-76
2022/05/14 09:41:41;;;;;;;20.73;5.60;;;;;;;;;;5093607;28;20090;-76
2022/05/14 09:44:08;;;;;;;19.48;5.68;;;;;;;;;;5084279;28;20040;-76
2022/05/14 09:46:34;;;;;;;19.20;5.70;;;;;;;;;;5073748;28;20050;-77
2022/05/14 09:49:04;;;;;;;18.05;5.22;;;;;;;;;;5084876;28;20470;-76
2022/05/14 09:51:31;;;;;;;18.20;5.95;;;;;;;;;;5098960;28;20444;-75
2022/05/14 09:54:07;;;;;;;17.13;4.88;;;;;;;;;;5094842;28;20044;-75
2022/05/14 09:56:38;;;;;;;18.45;5.40;;;;;;;;;;5092134;28;20035;-76
2022/05/14 09:59:07;;;;;;;18.38;5.40;;;;;;;;;;5092070;28;20039;-76
2022/05/14 10:01:33;;;;;;;21.27;5.32;;;;;;;;;;5100500;28;20053;-76
2022/05/14 10:04:29;;;;;;;17.67;5.72;;;;;;;;;;5104680;28;20039;-76
2022/05/14 10:07:06;;;;;;;15.90;5.13;;;;;;;;;;5096689;28;20050;-76
2022/05/14 10:09:35;;;;;;;15.15;4.57;;;;;;;;;;5092882;28;20078;-76
2022/05/14 10:12:06;;;;;;;17.10;5.28;;;;;;;;;;5092909;28;20549;-76
2022/05/14 10:14:44;;;;;;;16.48;5.43;;;;;;;;;;5076591;28;20160;-76
2022/05/14 10:17:30;;;;;;;17.33;5.00;;;;;;;;;;5077066;28;20643;-76
2022/05/14 10:20:05;;;;;;;19.42;5.85;;;;;;;;;;5067735;28;20032;-77
2022/05/14 10:28:38;;;;;;;18.05;5.40;;;;;;;;;;5078715;28;20399;-77
2022/05/14 10:31:20;;;;;;;20.88;5.95;;;;;;;;;;5084473;28;20047;-77
2022/05/14 10:33:47;;;;;;;42.05;7.25;;;;;;;;;;5084618;28;20048;-76
2022/05/14 10:36:27;;;;;;;16.63;5.82;;;;;;;;;;5069221;28;20052;-76
2022/05/14 10:39:05;;;;;;;16.38;5.20;;;;;;;;;;5076807;28;20380;-75
2022/05/14 10:41:35;;;;;;;16.90;5.00;;;;;;;;;;5079386;28;20036;-76
2022/05/14 10:44:09;;;;;;;20.60;6.25;;;;;;;;;;5076914;28;20043;-76
2022/05/14 10:46:36;;;;;;;17.63;5.38;;;;;;;;;;5082140;28;20044;-75
2022/05/14 10:49:08;;;;;;;20.85;5.95;;;;;;;;;;5081148;28;20050;-75
2022/05/14 10:51:45;;;;;;;17.30;5.47;;;;;;;;;;5089790;28;20408;-75
2022/05/14 10:54:22;;;;;;;22.33;5.68;;;;;;;;;;5083474;28;20045;-76
2022/05/14 10:56:51;;;;;;;17.67;5.20;;;;;;;;;;5084161;28;20093;-75
2022/05/14 10:59:28;;;;;;;21.23;7.28;;;;;;;;;;5067465;28;20040;-76
2022/05/14 11:01:54;;;;;;;20.20;5.57;;;;;;;;;;5084531;28;20150;-76
2022/05/14 11:04:20;;;;;;;17.33;5.20;;;;;;;;;;5084148;28;20456;-75
2022/05/14 11:06:49;;;;;;;19.08;5.78;;;;;;;;;;5080646;28;20419;-75
2022/05/14 11:09:16;;;;;;;20.63;6.00;;;;;;;;;;5083012;28;20535;-75
2022/05/14 11:11:47;;;;;;;18.05;5.35;;;;;;;;;;5083223;28;20092;-76
2022/05/14 11:14:13;;;;;;;20.80;5.53;;;;;;;;;;5080228;28;20044;-75
2022/05/14 11:16:45;;;;;;;18.17;5.50;;;;;;;;;;5082968;28;20035;-75
2022/05/14 11:19:24;;;;;;;16.23;5.07;;;;;;;;;;5086269;28;20060;-75
2022/05/14 11:21:50;;;;;;;19.08;4.97;;;;;;;;;;5089645;28;20040;-75
2022/05/14 11:24:17;;;;;;;20.92;5.93;;;;;;;;;;5089843;28;20028;-75
2022/05/14 11:26:45;;;;;;;19.85;5.05;;;;;;;;;;5089345;28;20403;-75
2022/05/14 11:29:13;;;;;;;19.65;4.90;;;;;;;;;;5075725;28;20036;-75
2022/05/14 11:31:49;;;;;;;20.15;5.28;;;;;;;;;;5089933;28;20088;-75
2022/05/14 11:34:18;;;;;;;19.73;5.93;;;;;;;;;;5069197;28;20503;-76
2022/05/14 11:36:49;;;;;;;21.38;6.05;;;;;;;;;;5090989;28;20044;-76
2022/05/14 11:39:25;;;;;;;20.40;5.60;;;;;;;;;;5087253;28;20040;-76
2022/05/14 11:41:52;;;;;;;16.35;5.10;;;;;;;;;;5084475;28;20339;-75
2022/05/14 11:44:42;;;;;;;21.25;5.93;;;;;;;;;;5071732;28;20052;-75
2022/05/14 11:47:19;;;;;;;20.58;6.32;;;;;;;;;;5066555;28;20043;-75
2022/05/14 11:49:47;;;;;;;18.95;6.15;;;;;;;;;;5065527;28;20130;-74
2022/05/14 11:52:39;;;;;;;20.50;6.30;;;;;;;;;;5086353;28;20056;-75
2022/05/14 11:55:09;;;;;;;22.02;5.78;;;;;;;;;;5077903;28;20051;-76
2022/05/14 11:58:05;;;;;;;19.80;5.95;;;;;;;;;;5089810;28;20083;-75
2022/05/14 12:00:35;;;;;;;17.85;5.35;;;;;;;;;;5045797;28;20612;-76
2022/05/14 12:03:02;;;;;;;17.25;5.28;;;;;;;;;;5087005;28;20119;-76
2022/05/14 12:05:41;;;;;;;15.40;5.30;;;;;;;;;;5082641;28;20044;-75
2022/05/14 12:08:07;;;;;;;16.08;5.07;;;;;;;;;;5082681;28;20101;-75
2022/05/14 12:10:45;;;;;;;21.60;6.72;;;;;;;;;;5080806;28;20093;-75
2022/05/14 12:13:20;;;;;;;17.73;5.47;;;;;;;;;;5082627;28;20115;-75
2022/05/14 12:15:47;;;;;;;21.55;6.10;;;;;;;;;;5081105;28;20558;-75
2022/05/14 12:18:14;;;;;;;20.83;5.88;;;;;;;;;;5088895;28;20042;-76
2022/05/14 12:20:43;;;;;;;18.27;5.80;;;;;;;;;;5088962;28;20122;-76
2022/05/14 12:23:14;;;;;;;22.52;4.97;;;;;;;;;;5071144;28;20036;-76
2022/05/14 12:25:41;;;;;;;21.77;6.43;;;;;;;;;;5084242;28;20612;-76
2022/05/14 12:28:18;;;;;;;15.75;5.07;;;;;;;;;;5093474;28;20367;-78
2022/05/14 12:34:07;;;;;;;17.88;5.53;;;;;;;;;;5084784;28;20044;-78
2022/05/14 12:36:43;;;;;;;18.00;5.00;;;;;;;;;;5086933;28;20396;-77
2022/05/14 12:39:12;;;;;;;20.58;5.57;;;;;;;;;;5089372;28;20093;-78
2022/05/14 12:41:41;;;;;;;16.48;5.03;;;;;;;;;;5105889;28;20032;-76
2022/05/14 12:44:09;;;;;;;18.70;5.93;;;;;;;;;;5089120;28;20036;-76
2022/05/14 12:46:43;;;;;;;15.82;4.60;;;;;;;;;;5089747;28;20126;-76
2022/05/14 12:49:16;;;;;;;14.98;4.72;;;;;;;;;;5071871;28;20085;-76
2022/05/14 12:51:47;;;;;;;16.95;5.20;;;;;;;;;;5086834;28;20097;-77
2022/05/14 12:54:22;;;;;;;13.75;4.82;;;;;;;;;;5088332;28;20040;-76
2022/05/14 12:56:50;;;;;;;24.85;6.07;;;;;;;;;;5087301;28;20486;-75
2022/05/14 12:59:16;;;;;;;16.38;5.10;;;;;;;;;;5088024;28;20507;-76
2022/05/14 13:01:42;;;;;;;16.90;4.80;;;;;;;;;;5071719;28;20032;-77
2022/05/14 13:04:10;;;;;;;19.92;5.80;;;;;;;;;;5071195;28;20032;-76
2022/05/14 13:06:41;;;;;;;19.83;5.32;;;;;;;;;;5088243;28;20116;-77
2022/05/14 13:09:10;;;;;;;21.65;5.68;;;;;;;;;;5087330;28;20071;-76
2022/05/14 13:11:45;;;;;;;20.77;6.07;;;;;;;;;;5087327;28;20046;-76
2022/05/14 13:14:14;;;;;;;17.77;5.40;;;;;;;;;;5086382;28;20403;-75
2022/05/14 13:16:40;;;;;;;20.10;5.50;;;;;;;;;;5086330;28;20132;-76
2022/05/14 13:19:17;;;;;;;15.30;5.20;;;;;;;;;;5089521;28;20039;-76
2022/05/14 13:21:50;;;;;;;16.77;4.95;;;;;;;;;;5088755;28;20119;-77
2022/05/14 13:24:19;;;;;;;19.80;5.75;;;;;;;;;;5081017;28;20040;-76
2022/05/14 13:26:52;;;;;;;21.08;5.60;;;;;;;;;;5062664;28;20124;-76
2022/05/14 13:29:28;;;;;;;18.85;5.72;;;;;;;;;;5093390;28;20043;-76
2022/05/14 13:32:11;;;;;;;17.17;5.20;;;;;;;;;;5086404;28;20047;-76
2022/05/14 13:37:26;;;;;;;22.67;5.70;;;;;;;;;;5079755;28;20048;-77
2022/05/14 13:39:57;;;;;;;20.33;5.82;;;;;;;;;;5081182;28;20039;-76
2022/05/14 13:42:32;;;;;;;15.52;5.35;;;;;;;;;;5083808;28;20032;-77
2022/05/14 13:45:18;;;;;;;18.50;5.15;;;;;;;;;;5084879;28;20035;-77
2022/05/14 13:47:51;;;;;;;32.47;6.10;;;;;;;;;;5086421;28;20693;-78
2022/05/14 13:50:43;;;;;;;18.88;5.72;;;;;;;;;;5092310;28;20403;-77
2022/05/14 13:53:24;;;;;;;15.77;5.20;;;;;;;;;;5088268;28;20059;-78
2022/05/14 13:55:59;;;;;;;23.13;6.38;;;;;;;;;;5089472;28;20093;-77
2022/05/14 13:58:25;;;;;;;18.88;5.18;;;;;;;;;;5093588;28;20042;-76
2022/05/14 14:00:51;;;;;;;22.45;5.95;;;;;;;;;;5088706;28;20034;-77
2022/05/14 14:03:19;;;;;;;19.38;5.05;;;;;;;;;;5092005;28;20061;-77
2022/05/14 14:05:46;;;;;;;17.35;5.38;;;;;;;;;;5092372;28;20096;-76
2022/05/14 14:08:13;;;;;;;22.88;5.70;;;;;;;;;;5092835;28;20032;-76
2022/05/14 14:10:39;;;;;;;21.15;5.22;;;;;;;;;;5098870;28;20067;-77
2022/05/14 14:13:07;;;;;;;19.52;5.15;;;;;;;;;;5100886;28;20452;-78
2022/05/14 14:15:35;;;;;;;21.23;5.50;;;;;;;;;;5105790;28;20499;-76
2022/05/14 14:18:02;;;;;;;19.42;5.45;;;;;;;;;;5094116;28;20178;-76
2022/05/14 14:20:30;;;;;;;22.67;5.03;;;;;;;;;;5104666;28;20036;-76
2022/05/14 14:23:00;;;;;;;17.33;5.70;;;;;;;;;;5084051;28;20036;-77
2022/05/14 14:25:29;;;;;;;19.98;5.22;;;;;;;;;;5096032;28;20040;-77
2022/05/14 14:27:55;;;;;;;18.73;5.65;;;;;;;;;;5089903;28;20047;-77
2022/05/14 14:30:22;;;;;;;24.48;5.43;;;;;;;;;;5074401;28;20092;-77
2022/05/14 14:32:48;;;;;;;18.20;5.28;;;;;;;;;;5088802;28;20036;-76
2022/05/14 14:35:14;;;;;;;19.10;5.25;;;;;;;;;;5089863;28;20104;-76
2022/05/14 14:37:42;;;;;;;19.38;5.20;;;;;;;;;;5089534;28;20097;-77
2022/05/14 14:40:10;;;;;;;19.52;4.93;;;;;;;;;;5087278;28;20403;-76
2022/05/14 14:42:37;;;;;;;22.02;5.80;;;;;;;;;;5100670;28;20119;-76
2022/05/14 14:45:04;;;;;;;21.23;5.35;;;;;;;;;;5096004;28;20584;-76
2022/05/14 14:47:32;;;;;;;17.08;5.20;;;;;;;;;;5089470;28;20126;-76
2022/05/14 14:49:58;;;;;;;17.38;5.63;;;;;;;;;;5092273;28;20039;-77
2022/05/14 14:52:25;;;;;;;22.55;5.90;;;;;;;;;;5072516;28;20043;-77
2022/05/14 14:54:51;;;;;;;25.33;6.63;;;;;;;;;;5089965;28;20040;-76
2022/05/14 14:57:18;;;;;;;23.95;6.22;;;;;;;;;;5093616;28;20077;-76
2022/05/14 14:59:44;;;;;;;22.85;6.05;;;;;;;;;;5074337;28;20173;-77
2022/05/14 15:02:14;;;;;;;19.73;5.78;;;;;;;;;;5099414;28;20031;-76
2022/05/14 15:04:47;;;;;;;20.88;6.15;;;;;;;;;;5079193;28;20035;-78
2022/05/14 15:07:14;;;;;;;17.08;5.38;;;;;;;;;;5093050;28;20462;-77
2022/05/14 15:09:41;;;;;;;18.83;5.93;;;;;;;;;;5089706;28;20392;-76